Time;durP1;ratioP1;P1;durP2;ratioP2;P2;SDS_P1;SDS_P2;PMS_P1;PMS_P2;Temp;Humidity;BMP_temperature;BMP_pressure;BME280_temperature;BME280_humidity;BME280_pressure;Samples;Min_cycle;Max_cycle;Signal;HPM_P1;HPM_P2
2022/11/05 00:11:06;;;;;;;0.50;0.50;;;;;;;;;;6159485;23;20231;-88
2022/11/05 00:19:08;;;;;;;0.60;0.60;;;;;;;;;;6155286;23;20181;-88
2022/11/05 00:27:11;;;;;;;0.57;0.57;;;;;;;;;;6111141;23;20177;-87
2022/11/05 00:29:41;;;;;;;0.60;0.60;;;;;;;;;;6184590;23;20203;-86
2022/11/05 00:32:10;;;;;;;0.60;0.60;;;;;;;;;;6159824;23;20188;-88
2022/11/05 00:34:38;;;;;;;0.50;0.50;;;;;;;;;;6185818;23;20181;-88
2022/11/05 00:37:07;;;;;;;0.60;0.60;;;;;;;;;;6159909;23;20177;-88
2022/11/05 00:39:35;;;;;;;0.50;0.50;;;;;;;;;;6185751;23;20204;-88
2022/11/05 00:45:03;;;;;;;0.60;0.60;;;;;;;;;;6185756;23;20231;-87
2022/11/05 00:50:18;;;;;;;0.60;0.60;;;;;;;;;;6185846;23;20200;-87
2022/11/05 00:52:56;;;;;;;0.60;0.60;;;;;;;;;;6185796;23;20169;-88
2022/11/05 00:55:27;;;;;;;0.60;0.60;;;;;;;;;;6159922;23;20209;-88
2022/11/05 00:57:55;;;;;;;0.60;0.60;;;;;;;;;;6159852;23;20178;-88
2022/11/05 01:00:26;;;;;;;0.50;0.50;;;;;;;;;;6159534;23;20171;-87
2022/11/05 01:02:57;;;;;;;0.60;0.60;;;;;;;;;;6159482;23;20185;-87
2022/11/05 01:05:26;;;;;;;0.60;0.60;;;;;;;;;;6159800;23;20174;-88
2022/11/05 01:07:54;;;;;;;0.50;0.50;;;;;;;;;;6184410;23;20173;-88
2022/11/05 01:10:23;;;;;;;0.60;0.60;;;;;;;;;;6159052;23;20214;-87
2022/11/05 01:12:52;;;;;;;0.50;0.50;;;;;;;;;;6184114;23;20219;-88
2022/11/05 01:15:29;;;;;;;0.50;0.50;;;;;;;;;;6185395;23;20231;-88
2022/11/05 01:17:58;;;;;;;0.60;0.60;;;;;;;;;;6159354;23;20204;-88
2022/11/05 01:20:27;;;;;;;0.60;0.60;;;;;;;;;;6159857;23;20225;-87
2022/11/05 01:22:55;;;;;;;0.60;0.60;;;;;;;;;;6159576;23;20183;-87
2022/11/05 01:25:24;;;;;;;0.60;0.60;;;;;;;;;;6159217;23;20229;-87
2022/11/05 01:27:52;;;;;;;0.60;0.60;;;;;;;;;;6184312;23;20181;-88
2022/11/05 01:30:36;;;;;;;0.60;0.60;;;;;;;;;;6154831;23;20226;-87
2022/11/05 01:33:04;;;;;;;0.57;0.57;;;;;;;;;;6159367;23;20172;-88
2022/11/05 01:35:33;;;;;;;0.50;0.50;;;;;;;;;;6159245;23;20231;-87
2022/11/05 01:38:01;;;;;;;0.60;0.60;;;;;;;;;;6184398;23;20180;-87
2022/11/05 01:40:30;;;;;;;0.60;0.60;;;;;;;;;;6159068;23;20228;-87
2022/11/05 01:43:00;;;;;;;2.30;1.10;;;;;;;;;;6159361;23;20181;-87
2022/11/05 01:45:33;;;;;;;0.87;0.87;;;;;;;;;;6159729;23;20215;-87
2022/11/05 01:48:05;;;;;;;0.80;0.80;;;;;;;;;;6159710;23;20172;-88
2022/11/05 01:50:39;;;;;;;3.00;1.00;;;;;;;;;;6185135;23;20242;-87
2022/11/05 01:53:13;;;;;;;1.77;1.27;;;;;;;;;;6159014;23;20202;-88
2022/11/05 01:55:44;;;;;;;0.90;0.90;;;;;;;;;;6159050;23;20175;-87
2022/11/05 01:58:18;;;;;;;2.33;1.20;;;;;;;;;;6159924;23;20227;-88
2022/11/05 02:00:46;;;;;;;1.10;1.10;;;;;;;;;;6185312;23;20171;-87
2022/11/05 02:03:17;;;;;;;0.60;0.60;;;;;;;;;;6183932;23;20199;-87
2022/11/05 02:05:46;;;;;;;0.60;0.60;;;;;;;;;;6185392;23;20214;-87
2022/11/05 02:08:19;;;;;;;0.60;0.60;;;;;;;;;;6185209;23;20227;-87
2022/11/05 02:10:48;;;;;;;1.20;1.07;;;;;;;;;;6178693;23;20275;-87
2022/11/05 02:13:16;;;;;;;0.60;0.60;;;;;;;;;;6156634;23;20171;-87
2022/11/05 02:15:49;;;;;;;0.60;0.60;;;;;;;;;;6157379;23;20173;-87
2022/11/05 02:18:22;;;;;;;1.33;1.23;;;;;;;;;;6181532;23;20174;-87
2022/11/05 02:20:55;;;;;;;0.87;0.80;;;;;;;;;;6181270;23;20193;-87
2022/11/05 02:23:57;;;;;;;0.70;0.70;;;;;;;;;;6156272;23;20174;-87
2022/11/05 02:26:41;;;;;;;1.47;1.47;;;;;;;;;;6180659;23;20180;-87
2022/11/05 02:29:30;;;;;;;0.60;0.60;;;;;;;;;;6181054;23;20173;-87
2022/11/05 02:32:04;;;;;;;0.90;0.90;;;;;;;;;;6179575;23;20264;-87
2022/11/05 02:34:36;;;;;;;0.60;0.60;;;;;;;;;;6155969;23;20189;-87
2022/11/05 02:37:08;;;;;;;0.60;0.60;;;;;;;;;;6155748;23;20275;-87
2022/11/05 02:39:40;;;;;;;4.73;1.00;;;;;;;;;;6155859;23;20209;-87
2022/11/05 02:42:12;;;;;;;2.43;1.40;;;;;;;;;;6155880;23;20193;-87
2022/11/05 02:44:45;;;;;;;1.30;1.20;;;;;;;;;;6180916;23;20190;-87
2022/11/05 02:47:20;;;;;;;1.43;1.33;;;;;;;;;;6180354;23;20277;-87
2022/11/05 02:49:54;;;;;;;0.80;0.80;;;;;;;;;;6180965;23;20188;-87
2022/11/05 02:52:26;;;;;;;2.10;1.43;;;;;;;;;;6155676;23;20181;-87
2022/11/05 02:54:56;;;;;;;0.60;0.60;;;;;;;;;;6155737;23;20185;-86
2022/11/05 02:57:25;;;;;;;1.10;1.10;;;;;;;;;;6181157;23;20178;-87
2022/11/05 03:00:00;;;;;;;1.50;1.40;;;;;;;;;;6157123;23;20174;-87
2022/11/05 03:02:30;;;;;;;2.00;1.80;;;;;;;;;;6155706;23;20184;-87
2022/11/05 03:04:59;;;;;;;3.67;1.37;;;;;;;;;;6155280;23;20263;-87
2022/11/05 03:07:33;;;;;;;1.23;1.10;;;;;;;;;;6157235;23;20176;-87
2022/11/05 03:10:25;;;;;;;8.07;1.20;;;;;;;;;;6167549;23;20205;-87
2022/11/05 03:13:01;;;;;;;1.43;1.40;;;;;;;;;;6165100;23;20180;-87
2022/11/05 03:15:36;;;;;;;0.70;0.70;;;;;;;;;;6160476;23;20180;-87
2022/11/05 03:18:10;;;;;;;1.13;1.13;;;;;;;;;;6160632;23;20182;-87
2022/11/05 03:20:43;;;;;;;2.73;1.30;;;;;;;;;;6160724;23;20178;-87
2022/11/05 03:23:14;;;;;;;0.70;0.70;;;;;;;;;;6160134;23;20223;-87
2022/11/05 03:25:46;;;;;;;0.70;0.70;;;;;;;;;;6160436;23;20198;-87
2022/11/05 03:28:15;;;;;;;2.93;1.10;;;;;;;;;;6160789;23;20177;-87
2022/11/05 03:30:44;;;;;;;0.90;0.90;;;;;;;;;;6186619;23;20193;-88
2022/11/05 03:33:17;;;;;;;2.13;0.73;;;;;;;;;;6160346;23;20204;-88
2022/11/05 03:35:47;;;;;;;3.53;1.50;;;;;;;;;;6185020;23;20181;-86
2022/11/05 03:38:17;;;;;;;1.17;1.07;;;;;;;;;;6186520;23;20178;-86
2022/11/05 03:40:48;;;;;;;4.47;4.10;;;;;;;;;;6184946;23;20227;-86
2022/11/05 03:43:18;;;;;;;1.37;0.80;;;;;;;;;;6159876;23;20181;-86
2022/11/05 03:45:50;;;;;;;0.60;0.60;;;;;;;;;;6160413;23;20177;-86
2022/11/05 03:48:21;;;;;;;2.83;1.43;;;;;;;;;;6184875;23;20211;-86
2022/11/05 03:50:52;;;;;;;1.13;1.13;;;;;;;;;;6186252;23;20237;-86
2022/11/05 03:53:23;;;;;;;5.27;1.77;;;;;;;;;;6160489;23;20187;-86
2022/11/05 03:55:55;;;;;;;3.30;1.13;;;;;;;;;;6160281;23;20207;-86
2022/11/05 03:58:24;;;;;;;1.57;1.43;;;;;;;;;;6160314;23;20227;-86
2022/11/05 04:00:53;;;;;;;0.93;0.93;;;;;;;;;;6160239;23;20184;-86
2022/11/05 04:03:22;;;;;;;1.13;0.83;;;;;;;;;;6160206;23;20206;-86
2022/11/05 04:14:12;;;;;;;1.00;1.00;;;;;;;;;;6159816;23;20181;-88
2022/11/05 04:25:00;;;;;;;4.80;1.47;;;;;;;;;;6160036;23;20186;-88
2022/11/05 04:27:29;;;;;;;1.27;1.27;;;;;;;;;;6159795;23;20193;-88
2022/11/05 04:32:43;;;;;;;3.10;1.33;;;;;;;;;;6160221;23;20208;-88
2022/11/05 04:35:13;;;;;;;2.53;1.13;;;;;;;;;;6184959;23;20318;-86
2022/11/05 04:37:41;;;;;;;0.67;0.67;;;;;;;;;;6159640;23;20182;-86
2022/11/05 04:40:10;;;;;;;1.00;1.00;;;;;;;;;;6185628;23;20170;-86
2022/11/05 04:42:39;;;;;;;1.10;1.00;;;;;;;;;;6160162;23;20174;-89
2022/11/05 04:45:07;;;;;;;2.27;1.57;;;;;;;;;;6159763;23;20222;-88
2022/11/05 04:47:36;;;;;;;3.73;1.07;;;;;;;;;;6159649;23;20206;-88
2022/11/05 04:50:04;;;;;;;2.80;1.30;;;;;;;;;;6159480;23;20178;-88
2022/11/05 04:52:34;;;;;;;2.80;0.97;;;;;;;;;;6185824;23;20269;-88
2022/11/05 04:55:02;;;;;;;2.90;1.20;;;;;;;;;;6159292;23;20189;-88
2022/11/05 04:57:31;;;;;;;9.63;1.97;;;;;;;;;;6159480;23;20178;-86
2022/11/05 04:59:59;;;;;;;0.97;0.97;;;;;;;;;;6184453;23;20173;-86
2022/11/05 05:02:30;;;;;;;1.00;1.00;;;;;;;;;;6184269;23;20209;-86
2022/11/05 05:04:59;;;;;;;3.33;1.30;;;;;;;;;;6185578;23;20191;-86
2022/11/05 05:07:28;;;;;;;0.90;0.90;;;;;;;;;;6159872;23;20224;-86
2022/11/05 05:09:58;;;;;;;1.40;1.33;;;;;;;;;;6185603;23;20205;-86
2022/11/05 05:12:26;;;;;;;0.80;0.80;;;;;;;;;;6159390;23;20198;-86
2022/11/05 05:14:55;;;;;;;2.33;1.53;;;;;;;;;;6159791;23;20173;-86
2022/11/05 05:17:23;;;;;;;1.83;1.33;;;;;;;;;;6160060;23;20179;-86
2022/11/05 05:22:38;;;;;;;1.50;1.37;;;;;;;;;;6159684;23;20181;-86
2022/11/05 05:25:08;;;;;;;7.93;1.70;;;;;;;;;;6184615;23;20179;-86
2022/11/05 05:27:37;;;;;;;1.23;1.23;;;;;;;;;;6159433;23;20175;-86
2022/11/05 05:30:06;;;;;;;1.53;0.90;;;;;;;;;;6159638;23;20180;-86
2022/11/05 05:32:34;;;;;;;1.13;1.03;;;;;;;;;;6159214;23;20197;-87
2022/11/05 05:35:02;;;;;;;1.47;0.87;;;;;;;;;;6184131;23;20240;-87
2022/11/05 05:37:31;;;;;;;1.97;1.00;;;;;;;;;;6159373;23;20180;-86
2022/11/05 05:39:59;;;;;;;0.87;0.87;;;;;;;;;;6159199;23;20178;-87
2022/11/05 05:42:29;;;;;;;1.10;1.07;;;;;;;;;;6159292;23;20172;-86
2022/11/05 05:44:57;;;;;;;12.53;1.70;;;;;;;;;;6159371;23;20173;-87
2022/11/05 05:47:26;;;;;;;0.60;0.60;;;;;;;;;;6184623;23;20175;-87
2022/11/05 05:49:54;;;;;;;4.63;1.53;;;;;;;;;;6161362;23;20205;-87
2022/11/05 05:52:22;;;;;;;1.80;1.10;;;;;;;;;;6161325;23;20214;-87
2022/11/05 05:54:51;;;;;;;2.77;2.67;;;;;;;;;;6161120;23;20186;-87
2022/11/05 05:57:19;;;;;;;2.23;1.03;;;;;;;;;;6187928;23;20169;-87
2022/11/05 05:59:49;;;;;;;3.20;1.23;;;;;;;;;;6161253;23;20179;-87
2022/11/05 06:02:17;;;;;;;1.10;1.00;;;;;;;;;;6161552;23;20174;-87
2022/11/05 06:04:46;;;;;;;7.27;1.97;;;;;;;;;;6185519;23;20202;-86
2022/11/05 06:07:14;;;;;;;1.13;1.00;;;;;;;;;;6161530;23;20178;-87
2022/11/05 06:09:43;;;;;;;1.67;1.20;;;;;;;;;;6161172;23;20203;-87
2022/11/05 06:12:11;;;;;;;1.90;1.13;;;;;;;;;;6187116;23;20187;-87
2022/11/05 06:14:40;;;;;;;7.30;1.67;;;;;;;;;;6160889;23;20178;-87
2022/11/05 06:17:09;;;;;;;1.80;0.83;;;;;;;;;;6161559;23;20220;-87
2022/11/05 06:19:38;;;;;;;0.80;0.80;;;;;;;;;;6186274;23;20213;-87
2022/11/05 06:22:06;;;;;;;0.87;0.83;;;;;;;;;;6161268;23;20175;-87
2022/11/05 06:24:35;;;;;;;2.97;2.60;;;;;;;;;;6186085;23;20232;-87
2022/11/05 06:27:03;;;;;;;0.80;0.80;;;;;;;;;;6161276;23;20202;-87
2022/11/05 06:29:31;;;;;;;0.50;0.50;;;;;;;;;;6161061;23;20229;-87
2022/11/05 06:32:00;;;;;;;1.73;1.63;;;;;;;;;;6160907;23;20190;-86
2022/11/05 06:34:30;;;;;;;1.70;0.90;;;;;;;;;;6161248;23;20178;-87
2022/11/05 06:36:58;;;;;;;1.70;1.20;;;;;;;;;;6160789;23;20179;-87
2022/11/05 06:39:26;;;;;;;1.23;0.93;;;;;;;;;;6161041;23;20233;-87
2022/11/05 06:41:55;;;;;;;0.53;0.53;;;;;;;;;;6160762;23;20235;-87
2022/11/05 06:44:43;;;;;;;0.97;0.93;;;;;;;;;;6160667;23;20179;-87
2022/11/05 06:47:12;;;;;;;1.30;1.03;;;;;;;;;;6185859;23;20175;-87
2022/11/05 06:49:41;;;;;;;0.73;0.73;;;;;;;;;;6185970;23;20233;-87
2022/11/05 06:52:10;;;;;;;0.50;0.50;;;;;;;;;;6160623;23;20193;-87
2022/11/05 06:54:38;;;;;;;1.23;1.00;;;;;;;;;;6159995;23;20178;-86
2022/11/05 06:57:08;;;;;;;2.60;1.40;;;;;;;;;;6180806;23;20182;-86
2022/11/05 06:59:36;;;;;;;0.63;0.63;;;;;;;;;;6158649;23;20183;-86
2022/11/05 07:02:05;;;;;;;1.37;0.93;;;;;;;;;;6183159;23;20222;-86
2022/11/05 07:04:34;;;;;;;1.60;0.87;;;;;;;;;;6183533;23;20202;-86
2022/11/05 07:07:06;;;;;;;1.37;1.00;;;;;;;;;;6158315;23;20185;-86
2022/11/05 07:09:37;;;;;;;4.50;1.47;;;;;;;;;;6156730;23;20207;-86
2022/11/05 07:12:06;;;;;;;1.10;0.90;;;;;;;;;;6157091;23;20178;-86
2022/11/05 07:14:34;;;;;;;5.27;2.00;;;;;;;;;;6157798;23;20194;-86
2022/11/05 07:17:02;;;;;;;0.60;0.60;;;;;;;;;;6182142;23;20263;-86
2022/11/05 07:19:31;;;;;;;0.77;0.77;;;;;;;;;;6156635;23;20182;-86
2022/11/05 07:21:59;;;;;;;1.23;0.70;;;;;;;;;;6157092;23;20214;-86
2022/11/05 07:24:29;;;;;;;1.90;1.07;;;;;;;;;;6184330;23;20218;-86
2022/11/05 07:26:58;;;;;;;3.50;2.80;;;;;;;;;;6184978;23;20171;-86
2022/11/05 07:29:26;;;;;;;0.83;0.83;;;;;;;;;;6184694;23;20182;-86
2022/11/05 07:31:55;;;;;;;0.80;0.80;;;;;;;;;;6160059;23;20205;-86
2022/11/05 07:34:23;;;;;;;0.70;0.70;;;;;;;;;;6156519;23;20195;-86
2022/11/05 07:36:52;;;;;;;0.70;0.70;;;;;;;;;;6184455;23;20171;-86
2022/11/05 07:39:20;;;;;;;6.40;1.17;;;;;;;;;;6180917;23;20175;-86
2022/11/05 07:41:53;;;;;;;0.70;0.70;;;;;;;;;;6158793;23;20179;-86
2022/11/05 07:44:22;;;;;;;0.67;0.67;;;;;;;;;;6156408;23;20167;-86
2022/11/05 07:46:50;;;;;;;0.70;0.70;;;;;;;;;;6182746;23;20214;-86
2022/11/05 07:49:19;;;;;;;0.43;0.43;;;;;;;;;;6181731;23;20187;-86
2022/11/05 07:51:48;;;;;;;0.97;0.70;;;;;;;;;;6182334;23;20182;-86
2022/11/05 07:54:16;;;;;;;0.43;0.43;;;;;;;;;;6182141;23;20252;-86
2022/11/05 07:56:48;;;;;;;0.63;0.63;;;;;;;;;;6182329;23;20276;-86
2022/11/05 07:59:20;;;;;;;0.73;0.73;;;;;;;;;;6156315;23;20179;-86
2022/11/05 08:01:48;;;;;;;0.80;0.80;;;;;;;;;;6158056;23;20196;-85
2022/11/05 08:04:19;;;;;;;0.73;0.73;;;;;;;;;;6157299;23;20194;-86
2022/11/05 08:06:48;;;;;;;0.97;0.97;;;;;;;;;;6158314;23;20181;-86
2022/11/05 08:09:18;;;;;;;0.80;0.80;;;;;;;;;;6182207;23;20177;-86
2022/11/05 08:11:48;;;;;;;1.50;1.10;;;;;;;;;;6157848;23;20214;-85
2022/11/05 08:14:23;;;;;;;0.60;0.60;;;;;;;;;;6158978;23;20245;-86
2022/11/05 08:16:51;;;;;;;1.03;0.97;;;;;;;;;;6184378;23;20227;-86
2022/11/05 08:19:20;;;;;;;0.60;0.60;;;;;;;;;;6184379;23;20179;-86
2022/11/05 08:21:48;;;;;;;0.70;0.70;;;;;;;;;;6160214;23;20183;-86
2022/11/05 08:24:16;;;;;;;2.33;1.23;;;;;;;;;;6159910;23;20241;-86
2022/11/05 08:26:45;;;;;;;0.70;0.70;;;;;;;;;;6184671;23;20187;-86
2022/11/05 08:29:13;;;;;;;0.50;0.50;;;;;;;;;;6184454;23;20226;-86
2022/11/05 08:31:43;;;;;;;1.23;1.13;;;;;;;;;;6184967;23;20206;-86
2022/11/05 08:34:11;;;;;;;0.93;0.80;;;;;;;;;;6186124;23;20201;-86
2022/11/05 08:36:42;;;;;;;2.43;1.33;;;;;;;;;;6159014;23;20238;-86
2022/11/05 08:39:10;;;;;;;2.47;1.57;;;;;;;;;;6159767;23;20175;-86
2022/11/05 08:41:44;;;;;;;1.43;1.33;;;;;;;;;;6159638;23;20170;-86
2022/11/05 08:44:12;;;;;;;1.57;1.03;;;;;;;;;;6158657;23;20171;-86
2022/11/05 08:46:41;;;;;;;4.20;1.50;;;;;;;;;;6159905;23;20182;-86
2022/11/05 08:49:12;;;;;;;1.00;1.00;;;;;;;;;;6186151;23;20182;-86
2022/11/05 08:51:40;;;;;;;2.20;1.40;;;;;;;;;;6184221;23;20233;-86
2022/11/05 08:54:09;;;;;;;2.73;1.73;;;;;;;;;;6184305;23;20248;-86
2022/11/05 08:56:37;;;;;;;3.53;1.43;;;;;;;;;;6158995;23;20171;-86
2022/11/05 08:59:05;;;;;;;3.63;1.33;;;;;;;;;;6159847;23;20186;-86
2022/11/05 09:01:34;;;;;;;2.37;1.30;;;;;;;;;;6159110;23;20175;-86
2022/11/05 09:04:03;;;;;;;0.97;0.97;;;;;;;;;;6184652;23;20278;-87
2022/11/05 09:06:32;;;;;;;2.53;1.00;;;;;;;;;;6185887;23;20231;-86
2022/11/05 09:09:03;;;;;;;1.43;1.30;;;;;;;;;;6186129;23;20164;-86
2022/11/05 09:11:31;;;;;;;1.03;0.70;;;;;;;;;;6159467;23;20205;-86
2022/11/05 09:14:19;;;;;;;0.63;0.63;;;;;;;;;;6158932;23;20282;-86
2022/11/05 09:16:48;;;;;;;0.60;0.60;;;;;;;;;;6159426;23;20187;-86
2022/11/05 09:19:16;;;;;;;0.83;0.83;;;;;;;;;;6159369;23;20275;-86
2022/11/05 09:21:46;;;;;;;5.77;1.63;;;;;;;;;;6184494;23;20182;-87
2022/11/05 09:24:14;;;;;;;1.93;1.70;;;;;;;;;;6159164;23;20199;-86
2022/11/05 09:26:43;;;;;;;3.50;1.90;;;;;;;;;;6185343;23;20171;-86
2022/11/05 09:29:11;;;;;;;3.83;2.13;;;;;;;;;;6159230;23;20233;-86
2022/11/05 09:31:42;;;;;;;5.00;2.47;;;;;;;;;;6159355;23;20179;-86
2022/11/05 09:34:10;;;;;;;4.50;2.77;;;;;;;;;;6159377;23;20191;-86
2022/11/05 09:36:39;;;;;;;5.80;2.90;;;;;;;;;;6184310;23;20211;-86
2022/11/05 09:39:09;;;;;;;6.70;3.20;;;;;;;;;;6185464;23;20166;-86
2022/11/05 09:41:39;;;;;;;1.10;1.03;;;;;;;;;;6159293;23;20190;-86
2022/11/05 09:44:12;;;;;;;1.77;1.63;;;;;;;;;;6159571;23;20201;-86
2022/11/05 09:46:42;;;;;;;3.47;2.90;;;;;;;;;;6159014;23;20177;-86
2022/11/05 09:49:15;;;;;;;3.33;2.17;;;;;;;;;;6159849;23;20208;-86
2022/11/05 09:51:44;;;;;;;5.00;2.00;;;;;;;;;;6158930;23;20182;-86
2022/11/05 09:54:15;;;;;;;3.60;1.20;;;;;;;;;;6159120;23;20300;-86
2022/11/05 09:56:43;;;;;;;2.73;1.30;;;;;;;;;;6159183;23;20171;-86
2022/11/05 09:59:17;;;;;;;0.93;0.80;;;;;;;;;;6159412;23;20186;-86
2022/11/05 10:01:46;;;;;;;1.10;1.10;;;;;;;;;;6184297;23;20230;-86
2022/11/05 10:04:18;;;;;;;1.00;0.80;;;;;;;;;;6183940;23;20195;-86
2022/11/05 10:06:49;;;;;;;2.60;1.10;;;;;;;;;;6185292;23;20171;-86
2022/11/05 10:09:23;;;;;;;2.50;1.30;;;;;;;;;;6184103;23;20187;-87
2022/11/05 10:11:55;;;;;;;1.00;1.00;;;;;;;;;;6185596;23;20237;-86
2022/11/05 10:14:25;;;;;;;3.10;1.07;;;;;;;;;;6185323;23;20184;-86
2022/11/05 10:16:55;;;;;;;3.40;1.77;;;;;;;;;;6159478;23;20175;-87
2022/11/05 10:19:26;;;;;;;0.70;0.70;;;;;;;;;;6159506;23;20179;-87
2022/11/05 10:21:55;;;;;;;0.80;0.80;;;;;;;;;;6185199;23;20198;-87
2022/11/05 10:24:43;;;;;;;2.10;1.23;;;;;;;;;;6159123;23;20175;-86
2022/11/05 10:27:15;;;;;;;2.93;1.60;;;;;;;;;;6185061;23;20172;-87
2022/11/05 10:29:44;;;;;;;1.17;0.93;;;;;;;;;;6184107;23;20176;-87
2022/11/05 10:32:16;;;;;;;3.33;1.73;;;;;;;;;;6159338;23;20202;-87
2022/11/05 10:34:45;;;;;;;1.60;1.50;;;;;;;;;;6186001;23;20214;-87
2022/11/05 10:37:13;;;;;;;1.50;1.40;;;;;;;;;;6160696;23;20202;-86
2022/11/05 10:39:43;;;;;;;6.83;1.57;;;;;;;;;;6161036;23;20200;-86
2022/11/05 10:42:23;;;;;;;1.87;1.77;;;;;;;;;;6185611;23;20176;-87
2022/11/05 10:44:54;;;;;;;2.50;2.07;;;;;;;;;;6185469;23;20175;-87
2022/11/05 10:47:31;;;;;;;0.77;0.77;;;;;;;;;;6161086;23;20175;-87
2022/11/05 10:50:00;;;;;;;1.60;0.77;;;;;;;;;;6186924;23;20178;-87
2022/11/05 10:52:32;;;;;;;3.83;1.23;;;;;;;;;;6186696;23;20195;-87
2022/11/05 10:55:04;;;;;;;0.80;0.80;;;;;;;;;;6160892;23;20191;-87
2022/11/05 10:57:34;;;;;;;2.20;1.73;;;;;;;;;;6186777;23;20221;-87
2022/11/05 11:00:19;;;;;;;0.70;0.70;;;;;;;;;;6160952;23;20175;-87
2022/11/05 11:02:48;;;;;;;4.60;2.60;;;;;;;;;;6186775;23;20171;-87
2022/11/05 11:05:22;;;;;;;5.97;2.83;;;;;;;;;;6161096;23;20175;-87
2022/11/05 11:08:00;;;;;;;6.80;3.30;;;;;;;;;;6185399;23;20190;-87
2022/11/05 11:10:31;;;;;;;7.53;3.40;;;;;;;;;;6185231;23;20254;-87
2022/11/05 11:13:00;;;;;;;8.97;2.50;;;;;;;;;;6160334;23;20171;-87
2022/11/05 11:15:31;;;;;;;4.90;2.00;;;;;;;;;;6186645;23;20543;-87
2022/11/05 11:18:18;;;;;;;4.30;2.83;;;;;;;;;;6160312;23;20175;-87
2022/11/05 11:20:46;;;;;;;5.63;2.73;;;;;;;;;;6160743;23;20178;-87
2022/11/05 11:23:15;;;;;;;5.63;2.37;;;;;;;;;;6160593;23;20229;-87
2022/11/05 11:25:48;;;;;;;6.37;3.27;;;;;;;;;;6186593;23;20166;-87
2022/11/05 11:28:19;;;;;;;7.93;3.13;;;;;;;;;;6185151;23;20182;-87
2022/11/05 11:30:49;;;;;;;12.73;3.70;;;;;;;;;;6160474;23;20175;-87
2022/11/05 11:33:21;;;;;;;11.20;3.83;;;;;;;;;;6185212;23;20199;-87
2022/11/05 11:35:50;;;;;;;4.87;3.80;;;;;;;;;;6160519;23;20203;-87
2022/11/05 11:38:18;;;;;;;6.07;3.30;;;;;;;;;;6160465;23;20253;-87
2022/11/05 11:40:48;;;;;;;7.60;3.53;;;;;;;;;;6186091;23;20167;-87
2022/11/05 11:43:22;;;;;;;8.37;3.90;;;;;;;;;;6160015;23;20189;-86
2022/11/05 11:45:54;;;;;;;9.73;4.43;;;;;;;;;;6186054;23;20166;-87
2022/11/05 11:48:30;;;;;;;9.43;2.93;;;;;;;;;;6160247;23;20229;-87
2022/11/05 11:50:59;;;;;;;5.77;2.97;;;;;;;;;;6185310;23;20182;-87
2022/11/05 11:53:36;;;;;;;5.37;2.80;;;;;;;;;;6160118;23;20182;-87
2022/11/05 11:56:13;;;;;;;6.63;3.97;;;;;;;;;;6160246;23;20190;-87
2022/11/05 11:58:43;;;;;;;9.87;3.50;;;;;;;;;;6160140;23;20201;-87
2022/11/05 12:01:27;;;;;;;5.63;3.20;;;;;;;;;;6160326;23;20198;-87
2022/11/05 12:03:58;;;;;;;5.47;2.33;;;;;;;;;;6157328;23;20249;-87
2022/11/05 12:06:28;;;;;;;3.97;2.17;;;;;;;;;;6160612;23;20205;-87
2022/11/05 12:09:00;;;;;;;5.57;3.53;;;;;;;;;;6186224;23;20205;-87
2022/11/05 12:11:38;;;;;;;13.90;2.90;;;;;;;;;;6185827;23;20257;-87
2022/11/05 12:14:14;;;;;;;5.07;2.20;;;;;;;;;;6159960;23;20179;-87
2022/11/05 12:16:50;;;;;;;1.30;1.20;;;;;;;;;;6160414;23;20194;-87
2022/11/05 12:19:25;;;;;;;3.63;2.80;;;;;;;;;;6186130;23;20170;-87
2022/11/05 12:21:57;;;;;;;6.57;2.97;;;;;;;;;;6184870;23;20233;-87
2022/11/05 12:24:37;;;;;;;4.17;2.27;;;;;;;;;;6184920;23;20243;-87
2022/11/05 12:27:14;;;;;;;2.93;1.93;;;;;;;;;;6159945;23;20180;-87
2022/11/05 12:29:47;;;;;;;3.63;2.20;;;;;;;;;;6185057;23;20174;-87
2022/11/05 12:32:34;;;;;;;7.10;2.60;;;;;;;;;;6186017;23;20202;-87
2022/11/05 12:35:07;;;;;;;8.83;3.20;;;;;;;;;;6159687;23;20245;-87
2022/11/05 12:37:39;;;;;;;5.83;2.47;;;;;;;;;;6159561;23;20230;-87
2022/11/05 12:40:22;;;;;;;6.80;1.73;;;;;;;;;;6160189;23;20175;-87
2022/11/05 12:43:01;;;;;;;5.40;2.37;;;;;;;;;;6167826;23;20179;-87
2022/11/05 12:45:40;;;;;;;6.70;2.60;;;;;;;;;;6159950;23;20217;-87
2022/11/05 12:48:17;;;;;;;6.07;2.60;;;;;;;;;;6159630;23;20174;-86
2022/11/05 12:50:53;;;;;;;7.13;3.13;;;;;;;;;;6159618;23;20207;-87
2022/11/05 12:53:39;;;;;;;4.63;2.70;;;;;;;;;;6159532;23;20179;-87
2022/11/05 12:56:10;;;;;;;6.17;1.97;;;;;;;;;;6184769;23;20195;-86
2022/11/05 12:58:43;;;;;;;4.47;3.23;;;;;;;;;;6184119;23;20185;-87
2022/11/05 13:01:15;;;;;;;10.50;2.83;;;;;;;;;;6184903;23;20178;-86
2022/11/05 13:03:46;;;;;;;1.10;1.03;;;;;;;;;;6156730;23;20201;-85
2022/11/05 13:06:19;;;;;;;6.23;2.53;;;;;;;;;;6182600;23;20269;-85
2022/11/05 13:08:52;;;;;;;5.70;3.50;;;;;;;;;;6157824;23;20181;-86
2022/11/05 13:11:23;;;;;;;6.10;2.23;;;;;;;;;;6154748;23;20222;-87
2022/11/05 13:14:00;;;;;;;4.70;1.90;;;;;;;;;;6179439;23;20180;-87
2022/11/05 13:16:30;;;;;;;1.60;1.27;;;;;;;;;;6154445;23;20199;-87
2022/11/05 13:19:01;;;;;;;4.33;1.00;;;;;;;;;;6154504;23;20211;-87
2022/11/05 13:21:30;;;;;;;3.77;1.30;;;;;;;;;;6156073;23;20180;-86
2022/11/05 13:24:02;;;;;;;12.37;1.60;;;;;;;;;;6179180;23;20179;-86
2022/11/05 13:26:33;;;;;;;0.50;0.50;;;;;;;;;;6154974;23;20258;-87
2022/11/05 13:29:05;;;;;;;1.13;0.87;;;;;;;;;;6154182;23;20207;-87
2022/11/05 13:31:36;;;;;;;3.57;1.50;;;;;;;;;;6179270;23;20234;-87
2022/11/05 13:34:07;;;;;;;3.40;1.23;;;;;;;;;;6155502;23;20171;-87
2022/11/05 13:39:35;;;;;;;4.13;1.47;;;;;;;;;;6155955;23;20168;-87
2022/11/05 13:42:24;;;;;;;3.23;1.40;;;;;;;;;;6154745;23;20179;-87
2022/11/05 13:45:16;;;;;;;0.40;0.40;;;;;;;;;;6119497;23;20175;-87
2022/11/05 13:48:08;;;;;;;3.07;1.47;;;;;;;;;;6126593;23;20180;-87
2022/11/05 13:50:51;;;;;;;2.83;1.50;;;;;;;;;;6179009;23;20176;-87
2022/11/05 13:53:41;;;;;;;2.03;1.17;;;;;;;;;;6151415;23;20703;-87
2022/11/05 13:56:17;;;;;;;5.97;1.33;;;;;;;;;;6119760;23;20474;-87
2022/11/05 13:58:56;;;;;;;4.53;1.97;;;;;;;;;;6155478;23;20171;-87
2022/11/05 14:01:34;;;;;;;4.17;1.47;;;;;;;;;;6154552;23;20172;-87
2022/11/05 14:04:04;;;;;;;3.80;2.07;;;;;;;;;;6179118;23;20195;-87
2022/11/05 14:06:34;;;;;;;2.97;2.07;;;;;;;;;;6178955;23;20211;-87
2022/11/05 14:09:05;;;;;;;5.23;2.00;;;;;;;;;;6154633;23;20183;-87
2022/11/05 14:11:35;;;;;;;6.57;2.70;;;;;;;;;;6177286;23;20209;-87
2022/11/05 14:14:05;;;;;;;4.13;2.40;;;;;;;;;;6160727;23;20175;-87
2022/11/05 14:16:48;;;;;;;5.17;2.30;;;;;;;;;;6185812;23;20238;-86
2022/11/05 14:19:32;;;;;;;4.03;2.43;;;;;;;;;;6186033;23;20175;-87
2022/11/05 14:22:21;;;;;;;6.30;2.57;;;;;;;;;;6187488;23;20287;-87
2022/11/05 14:24:51;;;;;;;4.23;2.43;;;;;;;;;;6161079;23;20171;-87
2022/11/05 14:27:53;;;;;;;7.67;2.17;;;;;;;;;;6160845;23;20167;-87
2022/11/05 14:30:40;;;;;;;4.43;3.00;;;;;;;;;;6185668;23;20189;-86
2022/11/05 14:33:31;;;;;;;5.93;3.40;;;;;;;;;;6161008;23;20253;-86
2022/11/05 14:36:27;;;;;;;6.70;3.17;;;;;;;;;;6160890;23;20189;-87
2022/11/05 14:38:57;;;;;;;4.53;3.77;;;;;;;;;;6160772;23;20182;-86
2022/11/05 14:41:51;;;;;;;6.53;3.47;;;;;;;;;;6185672;23;20175;-87
2022/11/05 14:44:20;;;;;;;4.67;2.50;;;;;;;;;;6161378;23;20178;-86
2022/11/05 14:46:49;;;;;;;9.00;3.50;;;;;;;;;;6186668;23;20175;-87
2022/11/05 14:49:19;;;;;;;5.13;3.70;;;;;;;;;;6187258;23;20177;-87
2022/11/05 14:51:49;;;;;;;3.50;2.97;;;;;;;;;;6160966;23;20189;-87
2022/11/05 14:54:20;;;;;;;6.80;3.83;;;;;;;;;;6187055;23;20213;-86
2022/11/05 14:56:51;;;;;;;8.80;4.00;;;;;;;;;;6161058;23;20199;-86
2022/11/05 14:59:48;;;;;;;6.40;3.83;;;;;;;;;;6161121;23;20205;-87
2022/11/05 15:02:17;;;;;;;4.47;3.73;;;;;;;;;;6165394;23;20177;-86
2022/11/05 15:04:48;;;;;;;6.37;2.90;;;;;;;;;;6185383;23;20197;-87
2022/11/05 15:07:32;;;;;;;5.73;3.90;;;;;;;;;;6186888;23;20191;-86
2022/11/05 15:10:02;;;;;;;5.27;2.87;;;;;;;;;;6186249;23;20184;-87
2022/11/05 15:12:42;;;;;;;6.13;2.90;;;;;;;;;;6160441;23;20179;-87
2022/11/05 15:15:19;;;;;;;7.97;3.53;;;;;;;;;;6186559;23;20181;-87
2022/11/05 15:17:56;;;;;;;5.83;2.97;;;;;;;;;;6160239;23;20197;-87
2022/11/05 15:20:30;;;;;;;5.53;3.50;;;;;;;;;;6160775;23;20260;-87
2022/11/05 15:23:06;;;;;;;7.43;3.40;;;;;;;;;;6160403;23;20182;-86
2022/11/05 15:25:41;;;;;;;4.80;2.63;;;;;;;;;;6186412;23;20203;-87
2022/11/05 15:28:17;;;;;;;8.97;3.77;;;;;;;;;;6185336;23;20180;-86
2022/11/05 15:31:01;;;;;;;5.73;2.80;;;;;;;;;;6160115;23;20172;-86
2022/11/05 15:33:30;;;;;;;5.13;3.07;;;;;;;;;;6185319;23;20225;-87
2022/11/05 15:36:09;;;;;;;5.27;3.60;;;;;;;;;;6160971;23;20235;-87
2022/11/05 15:38:37;;;;;;;5.13;3.20;;;;;;;;;;6160099;23;20201;-86
2022/11/05 15:41:07;;;;;;;5.70;4.10;;;;;;;;;;6185134;23;20201;-87
2022/11/05 15:43:43;;;;;;;6.33;4.27;;;;;;;;;;6186400;23;20232;-87
2022/11/05 15:46:16;;;;;;;6.77;3.97;;;;;;;;;;6160021;23;20174;-87
2022/11/05 15:48:46;;;;;;;6.70;3.53;;;;;;;;;;6185344;23;20174;-87
2022/11/05 15:51:14;;;;;;;4.63;3.83;;;;;;;;;;6185122;23;20174;-87
2022/11/05 15:53:57;;;;;;;5.27;3.47;;;;;;;;;;6160199;23;20232;-87
2022/11/05 15:56:48;;;;;;;4.90;4.40;;;;;;;;;;6159426;23;20182;-87
2022/11/05 15:59:19;;;;;;;6.03;4.40;;;;;;;;;;6185055;23;20181;-87
2022/11/05 16:01:48;;;;;;;7.17;4.77;;;;;;;;;;6184696;23;20182;-87
2022/11/05 16:04:20;;;;;;;7.33;4.53;;;;;;;;;;6159856;23;20197;-86